sensor_id;sensor_type;location;lat;lon;timestamp;P1;durP1;ratioP1;P2;durP2;ratioP2
14187;SDS011;7175;51.978;5.330;2023-06-26T00:00:12;20.93;;;19.53;;
14187;SDS011;7175;51.978;5.330;2023-06-26T00:02:43;21.50;;;20.10;;
14187;SDS011;7175;51.978;5.330;2023-06-26T00:05:11;21.67;;;20.27;;
14187;SDS011;7175;51.978;5.330;2023-06-26T00:07:40;21.27;;;19.87;;
14187;SDS011;7175;51.978;5.330;2023-06-26T00:10:08;21.20;;;19.80;;
14187;SDS011;7175;51.978;5.330;2023-06-26T00:12:37;21.50;;;20.10;;
14187;SDS011;7175;51.978;5.330;2023-06-26T00:15:05;21.17;;;19.77;;
14187;SDS011;7175;51.978;5.330;2023-06-26T00:17:34;20.80;;;19.40;;
14187;SDS011;7175;51.978;5.330;2023-06-26T00:20:06;20.97;;;19.57;;
14187;SDS011;7175;51.978;5.330;2023-06-26T00:22:36;21.37;;;19.97;;
14187;SDS011;7175;51.978;5.330;2023-06-26T00:25:07;21.73;;;20.23;;
14187;SDS011;7175;51.978;5.330;2023-06-26T00:27:36;21.70;;;20.20;;
14187;SDS011;7175;51.978;5.330;2023-06-26T00:30:04;21.70;;;20.20;;
14187;SDS011;7175;51.978;5.330;2023-06-26T00:32:33;21.13;;;19.63;;
14187;SDS011;7175;51.978;5.330;2023-06-26T00:35:02;21.40;;;19.90;;
14187;SDS011;7175;51.978;5.330;2023-06-26T00:37:32;21.33;;;19.83;;
14187;SDS011;7175;51.978;5.330;2023-06-26T00:40:00;20.97;;;19.47;;
14187;SDS011;7175;51.978;5.330;2023-06-26T00:42:31;21.07;;;19.57;;
14187;SDS011;7175;51.978;5.330;2023-06-26T00:45:00;21.03;;;19.53;;
14187;SDS011;7175;51.978;5.330;2023-06-26T00:47:28;20.93;;;19.43;;
14187;SDS011;7175;51.978;5.330;2023-06-26T00:49:57;20.57;;;19.07;;
14187;SDS011;7175;51.978;5.330;2023-06-26T00:52:25;20.37;;;18.97;;
14187;SDS011;7175;51.978;5.330;2023-06-26T00:54:55;20.77;;;19.27;;
14187;SDS011;7175;51.978;5.330;2023-06-26T00:57:24;20.60;;;19.20;;
14187;SDS011;7175;51.978;5.330;2023-06-26T00:59:52;21.50;;;20.00;;
14187;SDS011;7175;51.978;5.330;2023-06-26T01:02:21;21.10;;;19.60;;
14187;SDS011;7175;51.978;5.330;2023-06-26T01:04:49;21.07;;;19.67;;
14187;SDS011;7175;51.978;5.330;2023-06-26T01:07:19;21.23;;;19.83;;
14187;SDS011;7175;51.978;5.330;2023-06-26T01:09:48;21.07;;;19.67;;
14187;SDS011;7175;51.978;5.330;2023-06-26T01:12:18;21.37;;;19.97;;
14187;SDS011;7175;51.978;5.330;2023-06-26T01:14:49;21.40;;;20.00;;
14187;SDS011;7175;51.978;5.330;2023-06-26T01:17:17;21.73;;;20.33;;
14187;SDS011;7175;51.978;5.330;2023-06-26T01:19:45;21.37;;;19.97;;
14187;SDS011;7175;51.978;5.330;2023-06-26T01:22:16;21.10;;;19.70;;
14187;SDS011;7175;51.978;5.330;2023-06-26T01:24:56;21.50;;;20.10;;
14187;SDS011;7175;51.978;5.330;2023-06-26T01:27:36;21.40;;;20.00;;
14187;SDS011;7175;51.978;5.330;2023-06-26T01:30:05;21.90;;;20.50;;
14187;SDS011;7175;51.978;5.330;2023-06-26T01:32:35;22.00;;;20.60;;
14187;SDS011;7175;51.978;5.330;2023-06-26T01:35:05;21.80;;;20.30;;
14187;SDS011;7175;51.978;5.330;2023-06-26T01:37:34;22.00;;;20.50;;
14187;SDS011;7175;51.978;5.330;2023-06-26T01:40:03;22.30;;;20.80;;
14187;SDS011;7175;51.978;5.330;2023-06-26T01:42:32;22.27;;;20.77;;
14187;SDS011;7175;51.978;5.330;2023-06-26T01:45:03;22.60;;;21.10;;
14187;SDS011;7175;51.978;5.330;2023-06-26T01:47:37;22.30;;;20.80;;
14187;SDS011;7175;51.978;5.330;2023-06-26T01:50:09;21.10;;;19.70;;
14187;SDS011;7175;51.978;5.330;2023-06-26T01:52:42;22.03;;;20.53;;
14187;SDS011;7175;51.978;5.330;2023-06-26T01:55:20;21.83;;;20.33;;
14187;SDS011;7175;51.978;5.330;2023-06-26T01:57:52;22.10;;;20.60;;
14187;SDS011;7175;51.978;5.330;2023-06-26T02:00:25;21.73;;;20.23;;
14187;SDS011;7175;51.978;5.330;2023-06-26T02:02:54;21.97;;;20.47;;
14187;SDS011;7175;51.978;5.330;2023-06-26T02:05:22;22.10;;;20.53;;
14187;SDS011;7175;51.978;5.330;2023-06-26T02:07:51;21.80;;;20.30;;
14187;SDS011;7175;51.978;5.330;2023-06-26T02:10:19;21.53;;;20.03;;
14187;SDS011;7175;51.978;5.330;2023-06-26T02:12:48;22.10;;;20.50;;
14187;SDS011;7175;51.978;5.330;2023-06-26T02:15:16;22.13;;;20.53;;
14187;SDS011;7175;51.978;5.330;2023-06-26T02:17:45;22.40;;;20.80;;
14187;SDS011;7175;51.978;5.330;2023-06-26T02:20:14;22.43;;;20.83;;
14187;SDS011;7175;51.978;5.330;2023-06-26T02:22:43;22.30;;;20.70;;
14187;SDS011;7175;51.978;5.330;2023-06-26T02:25:11;22.43;;;20.87;;
14187;SDS011;7175;51.978;5.330;2023-06-26T02:27:40;22.80;;;21.20;;
14187;SDS011;7175;51.978;5.330;2023-06-26T02:30:10;23.03;;;21.43;;
14187;SDS011;7175;51.978;5.330;2023-06-26T02:32:38;23.13;;;21.53;;
14187;SDS011;7175;51.978;5.330;2023-06-26T02:35:08;22.77;;;21.17;;
14187;SDS011;7175;51.978;5.330;2023-06-26T02:37:36;23.07;;;21.47;;
14187;SDS011;7175;51.978;5.330;2023-06-26T02:40:05;22.60;;;21.00;;
14187;SDS011;7175;51.978;5.330;2023-06-26T02:42:35;22.73;;;21.17;;
14187;SDS011;7175;51.978;5.330;2023-06-26T02:45:05;23.27;;;21.67;;
14187;SDS011;7175;51.978;5.330;2023-06-26T02:47:34;23.00;;;21.40;;
14187;SDS011;7175;51.978;5.330;2023-06-26T02:53:57;24.07;;;22.37;;
14187;SDS011;7175;51.978;5.330;2023-06-26T02:56:25;24.43;;;22.73;;
14187;SDS011;7175;51.978;5.330;2023-06-26T02:58:55;25.07;;;23.37;;
14187;SDS011;7175;51.978;5.330;2023-06-26T03:01:24;25.20;;;23.50;;
14187;SDS011;7175;51.978;5.330;2023-06-26T03:03:52;25.17;;;23.47;;
14187;SDS011;7175;51.978;5.330;2023-06-26T03:06:21;23.53;;;21.83;;
14187;SDS011;7175;51.978;5.330;2023-06-26T03:08:49;24.20;;;22.43;;
14187;SDS011;7175;51.978;5.330;2023-06-26T03:11:19;23.73;;;22.03;;
14187;SDS011;7175;51.978;5.330;2023-06-26T03:13:47;23.33;;;21.63;;
14187;SDS011;7175;51.978;5.330;2023-06-26T03:16:16;24.17;;;22.37;;
14187;SDS011;7175;51.978;5.330;2023-06-26T03:18:45;24.20;;;22.40;;
14187;SDS011;7175;51.978;5.330;2023-06-26T03:21:13;24.03;;;22.23;;
14187;SDS011;7175;51.978;5.330;2023-06-26T03:23:41;24.23;;;22.37;;
14187;SDS011;7175;51.978;5.330;2023-06-26T03:26:10;23.53;;;21.73;;
14187;SDS011;7175;51.978;5.330;2023-06-26T03:28:42;23.70;;;21.90;;
14187;SDS011;7175;51.978;5.330;2023-06-26T03:31:10;23.27;;;21.47;;
14187;SDS011;7175;51.978;5.330;2023-06-26T03:33:38;23.33;;;21.53;;
14187;SDS011;7175;51.978;5.330;2023-06-26T03:36:07;24.27;;;22.37;;
14187;SDS011;7175;51.978;5.330;2023-06-26T03:38:35;24.07;;;22.17;;
14187;SDS011;7175;51.978;5.330;2023-06-26T03:41:04;23.80;;;21.90;;
14187;SDS011;7175;51.978;5.330;2023-06-26T03:43:32;24.30;;;22.40;;
14187;SDS011;7175;51.978;5.330;2023-06-26T03:46:02;24.23;;;22.33;;
14187;SDS011;7175;51.978;5.330;2023-06-26T03:48:30;23.97;;;22.07;;
14187;SDS011;7175;51.978;5.330;2023-06-26T03:50:59;24.03;;;22.13;;
14187;SDS011;7175;51.978;5.330;2023-06-26T03:53:28;24.50;;;22.60;;
14187;SDS011;7175;51.978;5.330;2023-06-26T03:55:56;24.87;;;22.97;;
14187;SDS011;7175;51.978;5.330;2023-06-26T03:58:25;24.60;;;22.70;;
14187;SDS011;7175;51.978;5.330;2023-06-26T04:00:53;25.73;;;23.83;;
14187;SDS011;7175;51.978;5.330;2023-06-26T04:03:24;25.50;;;23.60;;
14187;SDS011;7175;51.978;5.330;2023-06-26T04:05:52;25.47;;;23.57;;
14187;SDS011;7175;51.978;5.330;2023-06-26T04:08:20;26.17;;;24.27;;
14187;SDS011;7175;51.978;5.330;2023-06-26T04:10:48;26.10;;;24.20;;
14187;SDS011;7175;51.978;5.330;2023-06-26T04:13:18;25.53;;;23.63;;
14187;SDS011;7175;51.978;5.330;2023-06-26T04:15:47;26.17;;;24.17;;
14187;SDS011;7175;51.978;5.330;2023-06-26T04:18:15;25.03;;;23.13;;
14187;SDS011;7175;51.978;5.330;2023-06-26T04:23:34;25.13;;;23.23;;
14187;SDS011;7175;51.978;5.330;2023-06-26T04:26:03;25.30;;;23.40;;
14187;SDS011;7175;51.978;5.330;2023-06-26T04:28:32;25.07;;;23.17;;
14187;SDS011;7175;51.978;5.330;2023-06-26T04:31:01;25.77;;;23.87;;
14187;SDS011;7175;51.978;5.330;2023-06-26T04:33:30;24.37;;;22.57;;
14187;SDS011;7175;51.978;5.330;2023-06-26T04:35:59;24.57;;;22.70;;
14187;SDS011;7175;51.978;5.330;2023-06-26T04:38:31;24.93;;;23.03;;
14187;SDS011;7175;51.978;5.330;2023-06-26T04:41:00;23.83;;;22.03;;
14187;SDS011;7175;51.978;5.330;2023-06-26T04:43:29;23.83;;;22.03;;
14187;SDS011;7175;51.978;5.330;2023-06-26T04:45:58;23.67;;;21.87;;
14187;SDS011;7175;51.978;5.330;2023-06-26T04:48:26;23.50;;;21.70;;
14187;SDS011;7175;51.978;5.330;2023-06-26T04:50:55;24.17;;;22.27;;
14187;SDS011;7175;51.978;5.330;2023-06-26T04:53:25;25.10;;;23.20;;
14187;SDS011;7175;51.978;5.330;2023-06-26T04:55:55;24.90;;;23.00;;
14187;SDS011;7175;51.978;5.330;2023-06-26T04:58:24;24.10;;;22.20;;
14187;SDS011;7175;51.978;5.330;2023-06-26T05:00:52;23.77;;;21.97;;
14187;SDS011;7175;51.978;5.330;2023-06-26T05:03:21;24.43;;;22.53;;
14187;SDS011;7175;51.978;5.330;2023-06-26T05:05:50;24.00;;;22.10;;
14187;SDS011;7175;51.978;5.330;2023-06-26T05:08:20;23.87;;;22.03;;
14187;SDS011;7175;51.978;5.330;2023-06-26T05:10:50;24.17;;;22.27;;
14187;SDS011;7175;51.978;5.330;2023-06-26T05:13:21;24.17;;;22.27;;
14187;SDS011;7175;51.978;5.330;2023-06-26T05:15:49;23.67;;;21.87;;
14187;SDS011;7175;51.978;5.330;2023-06-26T05:18:18;22.87;;;21.10;;
14187;SDS011;7175;51.978;5.330;2023-06-26T05:20:47;22.60;;;20.90;;
14187;SDS011;7175;51.978;5.330;2023-06-26T05:23:16;22.23;;;20.53;;
14187;SDS011;7175;51.978;5.330;2023-06-26T05:25:44;21.47;;;19.87;;
14187;SDS011;7175;51.978;5.330;2023-06-26T05:28:14;21.10;;;19.60;;
14187;SDS011;7175;51.978;5.330;2023-06-26T05:30:44;21.40;;;19.80;;
14187;SDS011;7175;51.978;5.330;2023-06-26T05:33:14;20.93;;;19.33;;
14187;SDS011;7175;51.978;5.330;2023-06-26T05:35:45;21.13;;;19.53;;
14187;SDS011;7175;51.978;5.330;2023-06-26T05:38:14;21.50;;;19.90;;
14187;SDS011;7175;51.978;5.330;2023-06-26T05:40:43;22.07;;;20.47;;
14187;SDS011;7175;51.978;5.330;2023-06-26T05:43:11;21.67;;;20.07;;
14187;SDS011;7175;51.978;5.330;2023-06-26T05:45:40;21.27;;;19.67;;
14187;SDS011;7175;51.978;5.330;2023-06-26T05:48:10;21.03;;;19.53;;
14187;SDS011;7175;51.978;5.330;2023-06-26T05:50:39;22.07;;;20.47;;
14187;SDS011;7175;51.978;5.330;2023-06-26T05:53:08;21.60;;;20.00;;
14187;SDS011;7175;51.978;5.330;2023-06-26T05:55:37;22.17;;;20.47;;
14187;SDS011;7175;51.978;5.330;2023-06-26T05:58:10;22.27;;;20.57;;
14187;SDS011;7175;51.978;5.330;2023-06-26T06:00:39;22.57;;;20.87;;
14187;SDS011;7175;51.978;5.330;2023-06-26T06:03:09;22.00;;;20.40;;
14187;SDS011;7175;51.978;5.330;2023-06-26T06:05:38;21.80;;;20.20;;
14187;SDS011;7175;51.978;5.330;2023-06-26T06:08:07;21.43;;;19.83;;
14187;SDS011;7175;51.978;5.330;2023-06-26T06:10:35;21.83;;;20.23;;
14187;SDS011;7175;51.978;5.330;2023-06-26T06:13:04;21.47;;;19.87;;
14187;SDS011;7175;51.978;5.330;2023-06-26T06:15:33;22.13;;;20.43;;
14187;SDS011;7175;51.978;5.330;2023-06-26T06:18:01;21.97;;;20.37;;
14187;SDS011;7175;51.978;5.330;2023-06-26T06:20:31;21.83;;;20.23;;
14187;SDS011;7175;51.978;5.330;2023-06-26T06:22:59;21.77;;;20.17;;
14187;SDS011;7175;51.978;5.330;2023-06-26T06:25:27;21.90;;;20.20;;
14187;SDS011;7175;51.978;5.330;2023-06-26T06:27:56;22.27;;;20.57;;
14187;SDS011;7175;51.978;5.330;2023-06-26T06:30:24;21.10;;;19.50;;
14187;SDS011;7175;51.978;5.330;2023-06-26T06:33:10;21.00;;;19.40;;
14187;SDS011;7175;51.978;5.330;2023-06-26T06:35:39;20.60;;;19.00;;
14187;SDS011;7175;51.978;5.330;2023-06-26T06:38:08;20.87;;;19.27;;
14187;SDS011;7175;51.978;5.330;2023-06-26T06:40:37;21.57;;;19.87;;
14187;SDS011;7175;51.978;5.330;2023-06-26T06:43:06;21.03;;;19.43;;
14187;SDS011;7175;51.978;5.330;2023-06-26T06:45:34;20.57;;;19.07;;
14187;SDS011;7175;51.978;5.330;2023-06-26T06:48:06;21.60;;;20.00;;
14187;SDS011;7175;51.978;5.330;2023-06-26T06:50:34;20.20;;;18.70;;
14187;SDS011;7175;51.978;5.330;2023-06-26T06:53:04;21.00;;;19.43;;
14187;SDS011;7175;51.978;5.330;2023-06-26T06:55:33;21.97;;;20.37;;
14187;SDS011;7175;51.978;5.330;2023-06-26T06:58:01;22.00;;;20.40;;
14187;SDS011;7175;51.978;5.330;2023-06-26T07:00:32;21.90;;;20.30;;
14187;SDS011;7175;51.978;5.330;2023-06-26T07:03:00;20.07;;;18.57;;
14187;SDS011;7175;51.978;5.330;2023-06-26T07:05:30;21.17;;;19.57;;
14187;SDS011;7175;51.978;5.330;2023-06-26T07:07:59;21.03;;;19.43;;
14187;SDS011;7175;51.978;5.330;2023-06-26T07:10:30;21.17;;;19.57;;
14187;SDS011;7175;51.978;5.330;2023-06-26T07:12:59;21.83;;;20.23;;
14187;SDS011;7175;51.978;5.330;2023-06-26T07:15:27;21.43;;;19.83;;
14187;SDS011;7175;51.978;5.330;2023-06-26T07:17:56;21.47;;;19.87;;
14187;SDS011;7175;51.978;5.330;2023-06-26T07:20:24;20.93;;;19.33;;
14187;SDS011;7175;51.978;5.330;2023-06-26T07:22:55;21.50;;;19.90;;
14187;SDS011;7175;51.978;5.330;2023-06-26T07:25:24;21.10;;;19.50;;
14187;SDS011;7175;51.978;5.330;2023-06-26T07:27:54;21.23;;;19.63;;
14187;SDS011;7175;51.978;5.330;2023-06-26T07:30:23;20.30;;;18.80;;
14187;SDS011;7175;51.978;5.330;2023-06-26T07:32:52;21.40;;;19.80;;
14187;SDS011;7175;51.978;5.330;2023-06-26T07:35:21;21.03;;;19.43;;
14187;SDS011;7175;51.978;5.330;2023-06-26T07:37:51;22.60;;;20.90;;
14187;SDS011;7175;51.978;5.330;2023-06-26T07:40:19;22.37;;;20.67;;
14187;SDS011;7175;51.978;5.330;2023-06-26T07:42:48;22.03;;;20.43;;
14187;SDS011;7175;51.978;5.330;2023-06-26T07:45:18;22.10;;;20.50;;
14187;SDS011;7175;51.978;5.330;2023-06-26T07:47:47;21.90;;;20.20;;
14187;SDS011;7175;51.978;5.330;2023-06-26T07:50:17;21.63;;;19.93;;
14187;SDS011;7175;51.978;5.330;2023-06-26T07:52:49;21.80;;;20.20;;
14187;SDS011;7175;51.978;5.330;2023-06-26T07:55:20;21.60;;;20.00;;
14187;SDS011;7175;51.978;5.330;2023-06-26T07:57:50;22.23;;;20.53;;
14187;SDS011;7175;51.978;5.330;2023-06-26T08:00:20;22.10;;;20.43;;
14187;SDS011;7175;51.978;5.330;2023-06-26T08:02:49;21.13;;;19.53;;
14187;SDS011;7175;51.978;5.330;2023-06-26T08:05:19;21.60;;;19.93;;
14187;SDS011;7175;51.978;5.330;2023-06-26T08:07:49;21.13;;;19.53;;
14187;SDS011;7175;51.978;5.330;2023-06-26T08:10:26;21.93;;;20.23;;
14187;SDS011;7175;51.978;5.330;2023-06-26T08:15:28;20.43;;;18.93;;
14187;SDS011;7175;51.978;5.330;2023-06-26T08:17:56;20.87;;;19.37;;
14187;SDS011;7175;51.978;5.330;2023-06-26T08:20:32;20.47;;;18.97;;
14187;SDS011;7175;51.978;5.330;2023-06-26T08:23:03;21.23;;;19.63;;
14187;SDS011;7175;51.978;5.330;2023-06-26T08:25:37;21.50;;;19.90;;
14187;SDS011;7175;51.978;5.330;2023-06-26T08:28:06;21.27;;;19.67;;
14187;SDS011;7175;51.978;5.330;2023-06-26T08:33:12;20.70;;;19.20;;
14187;SDS011;7175;51.978;5.330;2023-06-26T08:35:40;20.57;;;19.07;;
14187;SDS011;7175;51.978;5.330;2023-06-26T08:38:09;20.47;;;18.97;;
14187;SDS011;7175;51.978;5.330;2023-06-26T08:40:39;20.37;;;18.87;;
14187;SDS011;7175;51.978;5.330;2023-06-26T08:43:10;20.90;;;19.40;;
14187;SDS011;7175;51.978;5.330;2023-06-26T08:45:41;20.40;;;18.90;;
14187;SDS011;7175;51.978;5.330;2023-06-26T08:48:11;20.07;;;18.57;;
14187;SDS011;7175;51.978;5.330;2023-06-26T08:50:41;19.67;;;18.27;;
14187;SDS011;7175;51.978;5.330;2023-06-26T08:53:14;19.83;;;18.33;;
14187;SDS011;7175;51.978;5.330;2023-06-26T08:55:50;19.13;;;17.73;;
14187;SDS011;7175;51.978;5.330;2023-06-26T08:58:20;20.03;;;18.50;;
14187;SDS011;7175;51.978;5.330;2023-06-26T09:00:52;19.60;;;18.10;;
14187;SDS011;7175;51.978;5.330;2023-06-26T09:03:23;19.67;;;18.17;;
14187;SDS011;7175;51.978;5.330;2023-06-26T09:05:53;20.10;;;18.50;;
14187;SDS011;7175;51.978;5.330;2023-06-26T09:08:24;20.40;;;18.90;;
14187;SDS011;7175;51.978;5.330;2023-06-26T09:10:55;20.70;;;19.10;;
14187;SDS011;7175;51.978;5.330;2023-06-26T09:13:43;20.37;;;18.87;;
14187;SDS011;7175;51.978;5.330;2023-06-26T09:16:25;19.87;;;18.37;;
14187;SDS011;7175;51.978;5.330;2023-06-26T09:18:55;20.37;;;18.77;;
14187;SDS011;7175;51.978;5.330;2023-06-26T09:21:25;20.10;;;18.60;;
14187;SDS011;7175;51.978;5.330;2023-06-26T09:23:53;20.90;;;19.30;;
14187;SDS011;7175;51.978;5.330;2023-06-26T09:26:23;20.03;;;18.53;;
14187;SDS011;7175;51.978;5.330;2023-06-26T09:28:52;21.20;;;19.60;;
14187;SDS011;7175;51.978;5.330;2023-06-26T09:31:23;19.63;;;18.23;;
14187;SDS011;7175;51.978;5.330;2023-06-26T09:34:07;21.23;;;19.63;;
14187;SDS011;7175;51.978;5.330;2023-06-26T09:36:36;20.80;;;19.20;;
14187;SDS011;7175;51.978;5.330;2023-06-26T09:39:07;21.00;;;19.40;;
14187;SDS011;7175;51.978;5.330;2023-06-26T09:41:42;19.53;;;18.07;;
14187;SDS011;7175;51.978;5.330;2023-06-26T09:44:11;21.07;;;19.47;;
14187;SDS011;7175;51.978;5.330;2023-06-26T09:46:44;20.43;;;18.83;;
14187;SDS011;7175;51.978;5.330;2023-06-26T09:49:14;19.70;;;18.20;;
14187;SDS011;7175;51.978;5.330;2023-06-26T09:51:52;19.60;;;18.20;;
14187;SDS011;7175;51.978;5.330;2023-06-26T09:54:22;18.20;;;16.90;;
14187;SDS011;7175;51.978;5.330;2023-06-26T09:56:55;18.53;;;17.23;;
14187;SDS011;7175;51.978;5.330;2023-06-26T09:59:26;19.63;;;18.13;;
14187;SDS011;7175;51.978;5.330;2023-06-26T10:02:03;20.00;;;18.50;;
14187;SDS011;7175;51.978;5.330;2023-06-26T10:04:35;19.47;;;18.07;;
14187;SDS011;7175;51.978;5.330;2023-06-26T10:13:21;20.30;;;18.80;;
14187;SDS011;7175;51.978;5.330;2023-06-26T10:15:53;20.07;;;18.57;;
14187;SDS011;7175;51.978;5.330;2023-06-26T10:18:24;19.67;;;18.20;;
14187;SDS011;7175;51.978;5.330;2023-06-26T10:20:53;20.23;;;18.73;;
14187;SDS011;7175;51.978;5.330;2023-06-26T10:23:24;20.13;;;18.63;;
14187;SDS011;7175;51.978;5.330;2023-06-26T10:25:55;19.70;;;18.30;;
14187;SDS011;7175;51.978;5.330;2023-06-26T10:28:29;18.00;;;16.70;;
14187;SDS011;7175;51.978;5.330;2023-06-26T10:31:00;19.40;;;17.93;;
14187;SDS011;7175;51.978;5.330;2023-06-26T10:33:33;20.37;;;18.77;;
14187;SDS011;7175;51.978;5.330;2023-06-26T10:36:14;20.47;;;18.87;;
14187;SDS011;7175;51.978;5.330;2023-06-26T10:38:51;20.70;;;19.10;;
14187;SDS011;7175;51.978;5.330;2023-06-26T10:41:20;20.73;;;19.13;;
14187;SDS011;7175;51.978;5.330;2023-06-26T10:43:51;20.23;;;18.73;;
14187;SDS011;7175;51.978;5.330;2023-06-26T10:46:33;20.20;;;18.60;;
14187;SDS011;7175;51.978;5.330;2023-06-26T10:49:17;20.33;;;18.73;;
14187;SDS011;7175;51.978;5.330;2023-06-26T10:51:48;20.10;;;18.50;;
14187;SDS011;7175;51.978;5.330;2023-06-26T10:54:17;20.67;;;19.07;;
14187;SDS011;7175;51.978;5.330;2023-06-26T10:56:47;20.97;;;19.27;;
14187;SDS011;7175;51.978;5.330;2023-06-26T10:59:17;20.70;;;19.00;;
14187;SDS011;7175;51.978;5.330;2023-06-26T11:01:46;20.47;;;18.87;;
14187;SDS011;7175;51.978;5.330;2023-06-26T11:04:36;20.43;;;18.83;;
14187;SDS011;7175;51.978;5.330;2023-06-26T11:07:16;20.33;;;18.63;;
14187;SDS011;7175;51.978;5.330;2023-06-26T11:09:53;20.70;;;19.00;;
14187;SDS011;7175;51.978;5.330;2023-06-26T11:12:36;21.13;;;19.43;;
14187;SDS011;7175;51.978;5.330;2023-06-26T11:15:07;19.93;;;18.33;;
14187;SDS011;7175;51.978;5.330;2023-06-26T11:17:36;18.97;;;17.47;;
14187;SDS011;7175;51.978;5.330;2023-06-26T11:20:07;19.37;;;17.87;;
14187;SDS011;7175;51.978;5.330;2023-06-26T11:22:37;19.53;;;18.03;;
14187;SDS011;7175;51.978;5.330;2023-06-26T11:25:07;19.20;;;17.70;;
14187;SDS011;7175;51.978;5.330;2023-06-26T11:27:40;18.67;;;17.27;;
14187;SDS011;7175;51.978;5.330;2023-06-26T11:30:09;18.90;;;17.40;;
14187;SDS011;7175;51.978;5.330;2023-06-26T11:32:39;19.50;;;18.00;;
14187;SDS011;7175;51.978;5.330;2023-06-26T11:35:11;19.27;;;17.77;;
14187;SDS011;7175;51.978;5.330;2023-06-26T11:37:39;19.20;;;17.70;;
14187;SDS011;7175;51.978;5.330;2023-06-26T11:40:17;19.87;;;18.37;;
14187;SDS011;7175;51.978;5.330;2023-06-26T11:42:46;19.27;;;17.77;;
14187;SDS011;7175;51.978;5.330;2023-06-26T11:45:20;19.33;;;17.83;;
14187;SDS011;7175;51.978;5.330;2023-06-26T11:47:49;19.40;;;17.90;;
14187;SDS011;7175;51.978;5.330;2023-06-26T11:50:20;19.70;;;18.20;;
14187;SDS011;7175;51.978;5.330;2023-06-26T11:52:52;19.90;;;18.30;;
14187;SDS011;7175;51.978;5.330;2023-06-26T11:55:23;19.67;;;18.17;;
14187;SDS011;7175;51.978;5.330;2023-06-26T11:57:54;20.77;;;19.07;;
14187;SDS011;7175;51.978;5.330;2023-06-26T12:00:23;20.77;;;19.10;;
14187;SDS011;7175;51.978;5.330;2023-06-26T12:02:52;21.50;;;19.80;;
14187;SDS011;7175;51.978;5.330;2023-06-26T12:05:23;20.97;;;19.27;;
14187;SDS011;7175;51.978;5.330;2023-06-26T12:07:52;20.80;;;19.10;;
14187;SDS011;7175;51.978;5.330;2023-06-26T12:10:21;21.00;;;19.30;;
14187;SDS011;7175;51.978;5.330;2023-06-26T12:12:49;20.90;;;19.20;;
14187;SDS011;7175;51.978;5.330;2023-06-26T12:15:19;20.90;;;19.20;;
14187;SDS011;7175;51.978;5.330;2023-06-26T12:17:47;21.60;;;19.83;;
14187;SDS011;7175;51.978;5.330;2023-06-26T12:20:19;21.70;;;19.90;;
14187;SDS011;7175;51.978;5.330;2023-06-26T12:22:51;20.57;;;18.87;;
14187;SDS011;7175;51.978;5.330;2023-06-26T12:25:23;20.93;;;19.23;;
14187;SDS011;7175;51.978;5.330;2023-06-26T12:27:51;20.80;;;19.10;;
14187;SDS011;7175;51.978;5.330;2023-06-26T12:30:20;20.97;;;19.27;;
14187;SDS011;7175;51.978;5.330;2023-06-26T12:32:49;20.40;;;18.73;;
14187;SDS011;7175;51.978;5.330;2023-06-26T12:35:18;21.03;;;19.43;;
14187;SDS011;7175;51.978;5.330;2023-06-26T12:37:46;20.50;;;18.90;;
14187;SDS011;7175;51.978;5.330;2023-06-26T12:40:20;20.37;;;18.77;;
14187;SDS011;7175;51.978;5.330;2023-06-26T12:42:49;20.63;;;19.03;;
14187;SDS011;7175;51.978;5.330;2023-06-26T12:45:18;20.07;;;18.47;;
14187;SDS011;7175;51.978;5.330;2023-06-26T12:47:49;20.10;;;18.50;;
14187;SDS011;7175;51.978;5.330;2023-06-26T12:50:21;20.10;;;18.50;;
14187;SDS011;7175;51.978;5.330;2023-06-26T12:52:49;20.20;;;18.60;;
14187;SDS011;7175;51.978;5.330;2023-06-26T12:55:20;19.90;;;18.30;;
14187;SDS011;7175;51.978;5.330;2023-06-26T12:57:48;19.93;;;18.33;;
14187;SDS011;7175;51.978;5.330;2023-06-26T13:00:20;19.50;;;17.90;;
14187;SDS011;7175;51.978;5.330;2023-06-26T13:02:51;19.63;;;18.13;;
14187;SDS011;7175;51.978;5.330;2023-06-26T13:05:25;19.63;;;18.13;;
14187;SDS011;7175;51.978;5.330;2023-06-26T13:07:56;19.77;;;18.27;;
14187;SDS011;7175;51.978;5.330;2023-06-26T13:10:43;19.20;;;17.70;;
14187;SDS011;7175;51.978;5.330;2023-06-26T13:13:13;19.00;;;17.50;;
14187;SDS011;7175;51.978;5.330;2023-06-26T13:15:52;18.93;;;17.43;;
14187;SDS011;7175;51.978;5.330;2023-06-26T13:18:20;19.10;;;17.60;;
14187;SDS011;7175;51.978;5.330;2023-06-26T13:20:57;19.80;;;18.20;;
14187;SDS011;7175;51.978;5.330;2023-06-26T13:23:43;20.07;;;18.47;;
14187;SDS011;7175;51.978;5.330;2023-06-26T13:29:06;19.77;;;18.17;;
14187;SDS011;7175;51.978;5.330;2023-06-26T13:31:41;20.10;;;18.50;;
14187;SDS011;7175;51.978;5.330;2023-06-26T13:34:27;19.63;;;18.03;;
14187;SDS011;7175;51.978;5.330;2023-06-26T13:36:57;20.10;;;18.50;;
14187;SDS011;7175;51.978;5.330;2023-06-26T13:39:32;19.83;;;18.23;;
14187;SDS011;7175;51.978;5.330;2023-06-26T13:42:11;20.20;;;18.60;;
14187;SDS011;7175;51.978;5.330;2023-06-26T13:44:42;20.73;;;19.13;;
14187;SDS011;7175;51.978;5.330;2023-06-26T13:50:44;20.80;;;19.10;;
14187;SDS011;7175;51.978;5.330;2023-06-26T13:53:20;20.47;;;18.77;;
14187;SDS011;7175;51.978;5.330;2023-06-26T13:55:50;20.33;;;18.73;;
14187;SDS011;7175;51.978;5.330;2023-06-26T13:58:27;20.80;;;19.10;;
14187;SDS011;7175;51.978;5.330;2023-06-26T14:04:00;19.90;;;18.40;;
14187;SDS011;7175;51.978;5.330;2023-06-26T14:06:44;19.80;;;18.30;;
14187;SDS011;7175;51.978;5.330;2023-06-26T14:09:14;19.67;;;18.17;;
14187;SDS011;7175;51.978;5.330;2023-06-26T14:11:49;19.50;;;18.00;;
14187;SDS011;7175;51.978;5.330;2023-06-26T14:14:26;19.33;;;17.83;;
14187;SDS011;7175;51.978;5.330;2023-06-26T14:16:56;19.30;;;17.80;;
14187;SDS011;7175;51.978;5.330;2023-06-26T14:19:26;19.50;;;18.00;;
14187;SDS011;7175;51.978;5.330;2023-06-26T14:21:55;19.50;;;18.00;;
14187;SDS011;7175;51.978;5.330;2023-06-26T14:24:27;19.37;;;17.87;;
14187;SDS011;7175;51.978;5.330;2023-06-26T14:26:58;19.57;;;18.07;;
14187;SDS011;7175;51.978;5.330;2023-06-26T14:29:29;19.27;;;17.77;;
14187;SDS011;7175;51.978;5.330;2023-06-26T14:32:04;19.53;;;18.03;;
14187;SDS011;7175;51.978;5.330;2023-06-26T14:34:40;19.53;;;18.03;;
14187;SDS011;7175;51.978;5.330;2023-06-26T14:39:40;19.10;;;17.63;;
14187;SDS011;7175;51.978;5.330;2023-06-26T14:42:15;19.73;;;18.23;;
14187;SDS011;7175;51.978;5.330;2023-06-26T14:44:56;20.27;;;18.67;;
14187;SDS011;7175;51.978;5.330;2023-06-26T14:47:29;20.50;;;18.90;;
14187;SDS011;7175;51.978;5.330;2023-06-26T14:49:59;20.50;;;18.90;;
14187;SDS011;7175;51.978;5.330;2023-06-26T14:52:43;19.90;;;18.30;;
14187;SDS011;7175;51.978;5.330;2023-06-26T14:55:17;19.93;;;18.33;;
14187;SDS011;7175;51.978;5.330;2023-06-26T15:03:52;20.40;;;18.80;;
14187;SDS011;7175;51.978;5.330;2023-06-26T15:06:30;20.30;;;18.70;;
14187;SDS011;7175;51.978;5.330;2023-06-26T15:09:01;20.30;;;18.70;;
14187;SDS011;7175;51.978;5.330;2023-06-26T15:14:38;20.37;;;18.70;;
14187;SDS011;7175;51.978;5.330;2023-06-26T15:17:09;19.83;;;18.23;;
14187;SDS011;7175;51.978;5.330;2023-06-26T15:19:40;21.10;;;19.50;;
14187;SDS011;7175;51.978;5.330;2023-06-26T15:22:10;21.13;;;19.43;;
14187;SDS011;7175;51.978;5.330;2023-06-26T15:24:39;19.87;;;18.37;;
14187;SDS011;7175;51.978;5.330;2023-06-26T15:27:07;20.70;;;19.20;;
14187;SDS011;7175;51.978;5.330;2023-06-26T15:29:35;20.20;;;18.70;;
14187;SDS011;7175;51.978;5.330;2023-06-26T15:32:04;20.40;;;18.90;;